Time;durP1;ratioP1;P1;durP2;ratioP2;P2;SDS_P1;SDS_P2;PMS_P1;PMS_P2;Temp;Humidity;BMP_temperature;BMP_pressure;BME280_temperature;BME280_humidity;BME280_pressure;Samples;Min_cycle;Max_cycle;Signal;HPM_P1;HPM_P2
2023/12/18 00:00:21;;;;;;;;;;;3.60;1.00;;;;;;4984828;28;20307;-82
2023/12/18 00:03:09;;;;;;;;;;;3.60;1.00;;;;;;4996643;28;20262;-81
2023/12/18 00:11:41;;;;;;;;;;;3.20;1.00;;;;;;4996552;28;19933;-81
2023/12/18 00:17:09;;;;;;;;;;;3.10;1.00;;;;;;4997714;28;21348;-81
2023/12/18 00:19:51;;;;;;;;;;;3.00;4.50;;;;;;4988855;28;20000;-81
2023/12/18 00:28:22;;;;;;;;;;;2.90;6.80;;;;;;4978801;28;20396;-81
2023/12/18 00:30:57;;;;;;;;;;;2.90;9.20;;;;;;5000848;28;19952;-81
2023/12/18 00:33:23;;;;;;;;;;;3.00;8.70;;;;;;5001454;28;20416;-72
2023/12/18 00:35:48;;;;;;;;;;;3.00;10.50;;;;;;4995994;28;19918;-72
2023/12/18 00:38:14;;;;;;;;;;;2.80;7.80;;;;;;5011158;28;20116;-72
2023/12/18 00:40:40;;;;;;;;;;;2.90;10.50;;;;;;4995479;28;19918;-72
2023/12/18 00:43:05;;;;;;;;;;;2.80;10.60;;;;;;4991928;28;19932;-72
2023/12/18 00:45:31;;;;;;;;;;;2.80;10.80;;;;;;5011690;28;19925;-72
2023/12/18 00:47:56;;;;;;;;;;;2.80;10.70;;;;;;4998855;28;20131;-72
2023/12/18 00:50:27;;;;;;;;;;;2.70;10.70;;;;;;4995817;28;19914;-73
2023/12/18 00:52:53;;;;;;;;;;;2.70;9.90;;;;;;4999396;28;19914;-72
2023/12/18 00:55:19;;;;;;;;;;;2.70;14.10;;;;;;4996482;28;19924;-72
2023/12/18 00:57:44;;;;;;;;;;;2.80;12.70;;;;;;4996969;28;20270;-72
2023/12/18 01:00:15;;;;;;;;;;;2.80;10.70;;;;;;4983950;28;19918;-72
2023/12/18 01:05:44;;;;;;;;;;;2.90;10.10;;;;;;4992136;28;19928;-81
2023/12/18 01:08:33;;;;;;;;;;;2.80;9.10;;;;;;4990569;28;20008;-81
2023/12/18 01:14:01;;;;;;;;;;;2.50;11.10;;;;;;4989858;28;19916;-81
2023/12/18 01:16:27;;;;;;;;;;;2.50;13.50;;;;;;4995943;28;20365;-80
2023/12/18 01:21:56;;;;;;;;;;;2.50;18.40;;;;;;4995381;28;20000;-81
2023/12/18 01:24:51;;;;;;;;;;;2.50;21.90;;;;;;4996017;28;19910;-81
2023/12/18 01:27:21;;;;;;;;;;;2.50;23.10;;;;;;4995620;28;19953;-81
2023/12/18 01:32:51;;;;;;;;;;;2.60;24.10;;;;;;5004986;28;19921;-72
2023/12/18 01:35:17;;;;;;;;;;;2.60;24.30;;;;;;5006304;28;19917;-72
2023/12/18 01:37:43;;;;;;;;;;;2.60;25.20;;;;;;4986278;28;19910;-72
2023/12/18 01:40:08;;;;;;;;;;;2.60;26.00;;;;;;4994354;28;19990;-72
2023/12/18 01:42:34;;;;;;;;;;;2.60;26.90;;;;;;5000051;28;19914;-72
2023/12/18 01:45:00;;;;;;;;;;;2.70;31.30;;;;;;4995678;28;20316;-73
2023/12/18 01:50:39;;;;;;;;;;;2.60;24.90;;;;;;5005609;28;20008;-81
2023/12/18 01:56:09;;;;;;;;;;;2.60;33.50;;;;;;4998458;28;19933;-81
2023/12/18 01:58:41;;;;;;;;;;;2.70;33.50;;;;;;4995610;28;19909;-81
2023/12/18 02:01:08;;;;;;;;;;;2.70;33.50;;;;;;4979264;28;19918;-81
2023/12/18 02:03:40;;;;;;;;;;;2.70;27.80;;;;;;4995796;28;19952;-73
2023/12/18 02:06:06;;;;;;;;;;;2.70;36.40;;;;;;4995807;28;19909;-72
2023/12/18 02:08:34;;;;;;;;;;;2.70;33.50;;;;;;5013583;28;19937;-72
2023/12/18 02:11:00;;;;;;;;;;;2.70;33.50;;;;;;4998749;28;19921;-72
2023/12/18 02:13:26;;;;;;;;;;;2.70;33.50;;;;;;5001644;28;19914;-72
2023/12/18 02:15:51;;;;;;;;;;;2.70;36.70;;;;;;4994855;28;19956;-72
2023/12/18 02:18:17;;;;;;;;;;;2.70;33.50;;;;;;4994448;28;20416;-72
2023/12/18 02:20:43;;;;;;;;;;;2.70;33.50;;;;;;4994107;28;19917;-72
2023/12/18 02:23:09;;;;;;;;;;;2.70;33.50;;;;;;4994308;28;20269;-73
2023/12/18 02:25:35;;;;;;;;;;;2.70;33.50;;;;;;4994176;28;19917;-73
2023/12/18 02:28:01;;;;;;;;;;;2.90;33.70;;;;;;5001023;28;19914;-73
2023/12/18 02:30:27;;;;;;;;;;;2.90;33.70;;;;;;4998237;28;19920;-72
2023/12/18 02:36:01;;;;;;;;;;;2.90;33.70;;;;;;4995065;28;19921;-81
2023/12/18 02:38:33;;;;;;;;;;;2.90;33.50;;;;;;5009020;28;19914;-81
2023/12/18 02:40:59;;;;;;;;;;;2.90;33.70;;;;;;4997929;28;19914;-81
2023/12/18 02:43:57;;;;;;;;;;;3.00;33.80;;;;;;5008566;28;19916;-81
2023/12/18 02:49:27;;;;;;;;;;;3.00;33.80;;;;;;4994660;28;20416;-72
2023/12/18 02:51:53;;;;;;;;;;;3.10;33.90;;;;;;4992998;28;19960;-72
2023/12/18 02:54:19;;;;;;;;;;;3.10;32.60;;;;;;4994368;28;19914;-72
2023/12/18 02:56:44;;;;;;;;;;;3.10;33.90;;;;;;4994635;28;19922;-72
2023/12/18 02:59:10;;;;;;;;;;;3.00;24.10;;;;;;4990972;28;19975;-72
2023/12/18 03:01:35;;;;;;;;;;;3.00;24.50;;;;;;4997375;28;20303;-73
2023/12/18 03:07:04;;;;;;;;;;;3.10;27.80;;;;;;5001040;28;19928;-81
2023/12/18 03:15:51;;;;;;;;;;;3.20;23.90;;;;;;4998316;28;19920;-81
2023/12/18 03:18:17;;;;;;;;;;;3.10;22.70;;;;;;4987875;28;19937;-72
2023/12/18 03:20:43;;;;;;;;;;;3.10;23.80;;;;;;5007710;28;19969;-72
2023/12/18 03:23:08;;;;;;;;;;;3.10;22.30;;;;;;4989638;28;19917;-72
2023/12/18 03:25:34;;;;;;;;;;;3.20;24.80;;;;;;4990118;28;20265;-72
2023/12/18 03:27:59;;;;;;;;;;;3.10;23.80;;;;;;4994377;28;19933;-73
2023/12/18 03:30:25;;;;;;;;;;;3.10;26.00;;;;;;4993928;28;20000;-72
2023/12/18 03:38:56;;;;;;;;;;;3.30;23.50;;;;;;4997647;28;19921;-81
2023/12/18 03:41:39;;;;;;;;;;;3.30;22.90;;;;;;4985311;28;19918;-81
2023/12/18 03:47:09;;;;;;;;;;;3.10;20.90;;;;;;4998052;28;20009;-81
2023/12/18 03:55:41;;;;;;;;;;;3.00;18.70;;;;;;4996293;28;19980;-81
2023/12/18 04:01:09;;;;;;;;;;;3.00;23.50;;;;;;5013552;28;20610;-81
2023/12/18 04:06:41;;;;;;;;;;;2.90;29.20;;;;;;4997844;28;19978;-82
2023/12/18 04:18:16;;;;;;;;;;;;;;;;;;4991358;28;19965;-72
2023/12/18 04:20:45;;;;;;;;;;;2.80;33.60;;;;;;4997772;28;19961;-72
2023/12/18 04:23:11;;;;;;;;;;;;;;;;;;5016158;28;20000;-72
2023/12/18 04:25:39;;;;;;;;;;;2.80;33.60;;;;;;4995745;28;20337;-72
2023/12/18 04:28:04;;;;;;;;;;;2.80;33.60;;;;;;4997205;28;19970;-72
2023/12/18 04:30:30;;;;;;;;;;;2.90;33.70;;;;;;4996618;28;19914;-72
2023/12/18 04:32:56;;;;;;;;;;;1.60;32.60;;;;;;4997438;28;19914;-72
2023/12/18 04:41:27;;;;;;;;;;;2.90;33.70;;;;;;4997112;28;19975;-81
2023/12/18 04:44:23;;;;;;;;;;;2.90;31.70;;;;;;4984191;28;19914;-81
2023/12/18 04:49:51;;;;;;;;;;;2.70;33.50;;;;;;5013507;28;20276;-72
2023/12/18 04:52:17;;;;;;;;;;;2.70;33.50;;;;;;4997312;28;19910;-72
2023/12/18 04:54:42;;;;;;;;;;;2.80;33.60;;;;;;4998233;28;19918;-72
2023/12/18 04:57:08;;;;;;;;;;;2.80;33.60;;;;;;4995986;28;19917;-72
2023/12/18 04:59:40;;;;;;;;;;;2.70;33.50;;;;;;5002143;28;19910;-72
2023/12/18 05:02:05;;;;;;;;;;;2.70;33.50;;;;;;4996393;28;19924;-72
2023/12/18 05:04:34;;;;;;;;;;;2.80;33.60;;;;;;5003046;28;20277;-81
2023/12/18 05:07:21;;;;;;;;;;;2.90;33.70;;;;;;5010576;28;19921;-81
2023/12/18 05:12:50;;;;;;;;;;;2.90;33.70;;;;;;5006761;28;20280;-81
2023/12/18 05:18:18;;;;;;;;;;;2.80;33.60;;;;;;4990167;28;19921;-81
2023/12/18 05:23:49;;;;;;;;;;;3.00;33.80;;;;;;4989539;28;19961;-81
2023/12/18 05:26:22;;;;;;;;;;;3.00;33.80;;;;;;4995469;28;19920;-83
2023/12/18 05:31:50;;;;;;;;;;;2.90;33.70;;;;;;4987399;28;19964;-84
2023/12/18 05:40:45;;;;;;;;;;;2.90;33.70;;;;;;4996084;28;19956;-83
2023/12/18 05:46:14;;;;;;;;;;;2.90;33.70;;;;;;4995085;28;19956;-81
2023/12/18 05:48:39;;;;;;;;;;;2.40;33.30;;;;;;5012374;28;19957;-82
2023/12/18 05:51:05;;;;;;;;;;;2.80;33.60;;;;;;5005086;28;20357;-82
2023/12/18 06:02:40;;;;;;;;;;;3.00;33.80;;;;;;4976329;28;19969;-81
2023/12/18 06:05:07;;;;;;;;;;;2.80;33.60;;;;;;4991569;28;19918;-73
2023/12/18 06:07:32;;;;;;;;;;;2.90;33.70;;;;;;4996493;28;19920;-74
2023/12/18 06:13:00;;;;;;;;;;;2.90;33.70;;;;;;4993695;28;19920;-73
2023/12/18 06:15:26;;;;;;;;;;;2.80;33.60;;;;;;5002214;28;19917;-73
2023/12/18 06:18:03;;;;;;;;;;;2.70;33.50;;;;;;4989362;28;19920;-73
2023/12/18 06:23:47;;;;;;;;;;;2.70;33.50;;;;;;4993352;28;19921;-82
2023/12/18 06:32:19;;;;;;;;;;;;;;;;;;4980264;28;19921;-83
2023/12/18 06:34:51;;;;;;;;;;;2.80;33.60;;;;;;5001879;28;19922;-76
2023/12/18 06:37:17;;;;;;;;;;;2.70;33.50;;;;;;5003651;28;19909;-73
2023/12/18 06:39:45;;;;;;;;;;;2.80;33.60;;;;;;5008675;28;19959;-73
2023/12/18 06:42:10;;;;;;;;;;;2.70;33.50;;;;;;4997942;28;19965;-73
2023/12/18 06:44:39;;;;;;;;;;;2.80;33.60;;;;;;5002770;28;20326;-74
2023/12/18 06:47:05;;;;;;;;;;;2.90;33.70;;;;;;4996952;28;19913;-72
2023/12/18 07:01:52;;;;;;;;;;;2.90;33.60;;;;;;4994424;28;20025;-80
2023/12/18 07:04:21;;;;;;;;;;;2.90;33.70;;;;;;4994578;28;19918;-80
2023/12/18 07:09:32;;;;;;;;;;;3.00;33.80;;;;;;4994801;28;20427;-81
2023/12/18 07:15:01;;;;;;;;;;;;;;;;;;5001091;28;20312;-82
2023/12/18 07:20:15;;;;;;;;;;;2.90;33.70;;;;;;4999069;28;20004;-81
2023/12/18 07:23:16;;;;;;;;;;;2.90;33.60;;;;;;5004743;28;20405;-82
2023/12/18 07:25:52;;;;;;;;;;;2.80;33.60;;;;;;5018390;28;19917;-83
2023/12/18 07:28:17;;;;;;;;;;;2.80;33.60;;;;;;5002505;28;19914;-82
2023/12/18 07:33:46;;;;;;;;;;;2.80;33.60;;;;;;4997719;28;19921;-80
2023/12/18 07:36:22;;;;;;;;;;;2.80;33.60;;;;;;4998912;28;19917;-72
2023/12/18 07:38:48;;;;;;;;;;;2.80;33.60;;;;;;5002959;28;19910;-73
2023/12/18 07:41:14;;;;;;;;;;;2.90;33.60;;;;;;4998966;28;19917;-73
2023/12/18 07:43:40;;;;;;;;;;;2.90;33.60;;;;;;4997504;28;20008;-73
2023/12/18 07:46:05;;;;;;;;;;;3.00;33.70;;;;;;4998490;28;19952;-74
2023/12/18 07:48:31;;;;;;;;;;;3.00;33.70;;;;;;5000521;28;19916;-73
2023/12/18 07:50:57;;;;;;;;;;;3.00;33.80;;;;;;4997954;28;20366;-73
2023/12/18 07:56:51;;;;;;;;;;;2.80;33.60;;;;;;4989057;28;19920;-80
2023/12/18 07:59:19;;;;;;;;;;;2.70;33.50;;;;;;4991228;28;19932;-81
2023/12/18 08:05:04;;;;;;;;;;;2.70;33.50;;;;;;4989110;28;19933;-81
2023/12/18 08:07:30;;;;;;;;;;;2.60;33.50;;;;;;4997051;28;20004;-81
2023/12/18 08:10:28;;;;;;;;;;;2.70;33.50;;;;;;4997737;28;20373;-81
2023/12/18 08:19:10;;;;;;;;;;;2.60;33.50;;;;;;4990450;28;19917;-81
2023/12/18 08:24:57;;;;;;;;;;;2.70;33.50;;;;;;4996039;28;19924;-81
2023/12/18 08:33:52;;;;;;;;;;;2.70;33.50;;;;;;4997424;28;20382;-81
2023/12/18 08:36:40;;;;;;;;;;;2.70;33.50;;;;;;4998281;28;19933;-81
2023/12/18 08:45:12;;;;;;;;;;;2.90;33.70;;;;;;4985705;28;19976;-81
2023/12/18 08:50:46;;;;;;;;;;;3.00;33.70;;;;;;4983371;28;19960;-81
2023/12/18 08:53:11;;;;;;;;;;;2.90;33.70;;;;;;5011863;28;19949;-73
2023/12/18 08:55:40;;;;;;;;;;;2.80;33.60;;;;;;4996577;28;19968;-73
2023/12/18 08:58:10;;;;;;;;;;;2.70;33.50;;;;;;4990837;28;19914;-73
2023/12/18 09:00:35;;;;;;;;;;;2.70;33.50;;;;;;4980085;28;20013;-73
2023/12/18 09:03:01;;;;;;;;;;;2.80;33.60;;;;;;4995476;28;20036;-73
2023/12/18 09:05:30;;;;;;;;;;;2.80;33.70;;;;;;4997621;28;19920;-73
2023/12/18 09:07:58;;;;;;;;;;;2.90;33.70;;;;;;5001382;28;19917;-73
2023/12/18 09:10:29;;;;;;;;;;;3.00;33.80;;;;;;5000820;28;19920;-73
2023/12/18 09:12:54;;;;;;;;;;;2.90;33.70;;;;;;5004879;28;19917;-74
2023/12/18 09:15:28;;;;;;;;;;;;;;;;;;4993513;28;19909;-73
2023/12/18 09:17:54;;;;;;;;;;;;;;;;;;5000825;28;19914;-73
2023/12/18 09:20:20;;;;;;;;;;;;;;;;;;4993638;28;19922;-72
2023/12/18 09:23:09;;;;;;;;;;;3.00;33.80;;;;;;4992987;28;19996;-82
2023/12/18 09:32:16;;;;;;;;;;;3.20;34.00;;;;;;4995279;28;19960;-81
2023/12/18 09:37:44;;;;;;;;;;;3.10;33.90;;;;;;4987217;28;20048;-72
2023/12/18 09:40:28;;;;;;;;;;;3.20;34.00;;;;;;4994856;28;20381;-72
2023/12/18 09:42:54;;;;;;;;;;;3.20;34.00;;;;;;4982901;28;20418;-72
2023/12/18 09:45:25;;;;;;;;;;;3.30;34.00;;;;;;4989954;28;19957;-72
2023/12/18 09:47:51;;;;;;;;;;;3.30;34.00;;;;;;4999213;28;20342;-72
2023/12/18 09:50:17;;;;;;;;;;;3.30;34.00;;;;;;4994722;28;19914;-72
2023/12/18 09:53:10;;;;;;;;;;;3.30;31.00;;;;;;4998394;28;19920;-80
2023/12/18 09:56:10;;;;;;;;;;;3.40;34.10;;;;;;4994968;28;20013;-81
2023/12/18 09:58:58;;;;;;;;;;;3.40;24.60;;;;;;4993101;28;19992;-80
2023/12/18 10:01:46;;;;;;;;;;;3.40;19.40;;;;;;4985037;28;19964;-80
2023/12/18 10:04:16;;;;;;;;;;;3.10;19.60;;;;;;4988663;28;19922;-80
2023/12/18 10:09:48;;;;;;;;;;;3.20;24.40;;;;;;5003781;28;19921;-73
2023/12/18 10:12:17;;;;;;;;;;;3.30;25.00;;;;;;4995315;28;20293;-73
2023/12/18 10:14:42;;;;;;;;;;;3.20;22.40;;;;;;4996012;28;19914;-73
2023/12/18 10:17:10;;;;;;;;;;;3.00;23.00;;;;;;4994514;28;19921;-73
2023/12/18 10:19:36;;;;;;;;;;;;;;;;;;4990804;28;19997;-73
2023/12/18 10:22:04;;;;;;;;;;;3.00;29.80;;;;;;4993559;28;20016;-73
2023/12/18 10:24:40;;;;;;;;;;;3.10;33.90;;;;;;4991545;28;20344;-81
2023/12/18 10:27:42;;;;;;;;;;;3.20;34.00;;;;;;4984787;28;19916;-81
2023/12/18 10:30:08;;;;;;;;;;;3.40;34.10;;;;;;4983960;28;19917;-81
2023/12/18 10:32:40;;;;;;;;;;;3.40;31.30;;;;;;5010523;28;19914;-81
2023/12/18 10:38:09;;;;;;;;;;;3.40;24.20;;;;;;5002483;28;20376;-74
2023/12/18 10:40:35;;;;;;;;;;;3.40;21.80;;;;;;4985492;28;19917;-73
2023/12/18 10:43:00;;;;;;;;;;;3.30;22.00;;;;;;4994831;28;19914;-73
2023/12/18 10:45:28;;;;;;;;;;;3.60;21.40;;;;;;4993969;28;19976;-73
2023/12/18 10:48:04;;;;;;;;;;;3.60;24.00;;;;;;4975535;28;19933;-73
2023/12/18 10:50:31;;;;;;;;;;;3.70;16.10;;;;;;4991589;28;19941;-73
2023/12/18 10:52:58;;;;;;;;;;;3.60;14.60;;;;;;5006763;28;19909;-74
2023/12/18 10:55:23;;;;;;;;;;;3.50;12.00;;;;;;5007082;28;19916;-73
2023/12/18 10:57:49;;;;;;;;;;;3.40;12.50;;;;;;4994727;28;19914;-73
2023/12/18 11:00:15;;;;;;;;;;;3.70;16.00;;;;;;4988605;28;20514;-73
2023/12/18 11:02:46;;;;;;;;;;;3.80;14.10;;;;;;4980778;28;20013;-73
2023/12/18 11:05:12;;;;;;;;;;;3.70;12.30;;;;;;5001073;28;20361;-73
2023/12/18 11:07:38;;;;;;;;;;;3.70;10.40;;;;;;4990329;28;19910;-73
2023/12/18 11:10:05;;;;;;;;;;;3.80;10.70;;;;;;4994956;28;19913;-73
2023/12/18 11:12:30;;;;;;;;;;;3.80;9.30;;;;;;4991176;28;19910;-73
2023/12/18 11:15:05;;;;;;;;;;;3.80;7.40;;;;;;4992612;28;19921;-74
2023/12/18 11:17:46;;;;;;;;;;;3.70;5.10;;;;;;5004617;28;20199;-73
2023/12/18 11:20:24;;;;;;;;;;;3.80;8.50;;;;;;4992900;28;19921;-73
2023/12/18 11:22:52;;;;;;;;;;;3.70;10.10;;;;;;4988339;28;19920;-73
2023/12/18 11:25:18;;;;;;;;;;;3.70;12.20;;;;;;4995431;28;19914;-73
2023/12/18 11:27:44;;;;;;;;;;;3.60;11.90;;;;;;5004100;28;19926;-73
2023/12/18 11:30:32;;;;;;;;;;;3.60;12.10;;;;;;4998620;28;19910;-73
2023/12/18 11:32:58;;;;;;;;;;;3.70;14.80;;;;;;4991964;28;19921;-73
2023/12/18 11:35:34;;;;;;;;;;;3.60;13.50;;;;;;5004092;28;20005;-73
2023/12/18 11:38:06;;;;;;;;;;;3.60;13.90;;;;;;5002816;28;19914;-73
2023/12/18 11:40:35;;;;;;;;;;;3.70;13.20;;;;;;4981494;28;20372;-73
2023/12/18 11:43:01;;;;;;;;;;;3.50;12.80;;;;;;4980984;28;19945;-73
2023/12/18 11:45:27;;;;;;;;;;;3.60;14.50;;;;;;4994196;28;19917;-73
2023/12/18 11:47:59;;;;;;;;;;;3.60;14.20;;;;;;4994091;28;19917;-73
2023/12/18 11:50:30;;;;;;;;;;;3.60;13.10;;;;;;4995708;28;19960;-73
2023/12/18 11:52:56;;;;;;;;;;;3.80;14.80;;;;;;4993217;28;19914;-73
2023/12/18 11:55:40;;;;;;;;;;;3.80;13.70;;;;;;4983694;28;19949;-81
2023/12/18 11:58:10;;;;;;;;;;;3.80;11.60;;;;;;4994755;28;20008;-81
2023/12/18 12:00:40;;;;;;;;;;;;;;;;;;4999377;28;19980;-81
2023/12/18 12:03:34;;;;;;;;;;;3.90;7.70;;;;;;4985997;28;19910;-81
2023/12/18 12:06:10;;;;;;;;;;;4.00;7.00;;;;;;4997679;28;20005;-81
2023/12/18 12:08:43;;;;;;;;;;;3.90;6.60;;;;;;4997968;28;19941;-75
2023/12/18 12:11:22;;;;;;;;;;;3.80;5.20;;;;;;4996349;28;19921;-73
2023/12/18 12:13:55;;;;;;;;;;;3.70;3.20;;;;;;4996490;28;19945;-73
2023/12/18 12:16:23;;;;;;;;;;;3.70;5.50;;;;;;4997142;28;19910;-73
2023/12/18 12:18:54;;;;;;;;;;;3.80;6.50;;;;;;4998111;28;19924;-73
2023/12/18 12:21:28;;;;;;;;;;;3.90;5.30;;;;;;4997244;28;20357;-73
2023/12/18 12:23:58;;;;;;;;;;;3.90;4.30;;;;;;4994771;28;19917;-73
2023/12/18 12:26:24;;;;;;;;;;;3.90;4.10;;;;;;4993971;28;19921;-73
2023/12/18 12:28:50;;;;;;;;;;;3.90;3.70;;;;;;4993319;28;19914;-73
2023/12/18 12:31:25;;;;;;;;;;;;;;;;;;4987795;28;19933;-73
2023/12/18 12:33:58;;;;;;;;;;;3.80;3.50;;;;;;4996379;28;19964;-73
2023/12/18 12:36:24;;;;;;;;;;;3.80;4.30;;;;;;4997008;28;19909;-73
2023/12/18 12:38:52;;;;;;;;;;;3.70;5.20;;;;;;4995494;28;19965;-80
2023/12/18 12:41:28;;;;;;;;;;;3.70;7.20;;;;;;4995614;28;20287;-73
2023/12/18 12:43:58;;;;;;;;;;;3.90;10.20;;;;;;4995195;28;19910;-74
2023/12/18 12:46:34;;;;;;;;;;;3.90;8.60;;;;;;4983754;28;20290;-73
2023/12/18 12:49:08;;;;;;;;;;;3.80;6.10;;;;;;4995705;28;19992;-73
2023/12/18 12:51:36;;;;;;;;;;;3.80;7.40;;;;;;4995665;28;19921;-73
2023/12/18 13:00:25;;;;;;;;;;;4.00;8.50;;;;;;4987459;28;19917;-81
2023/12/18 13:02:50;;;;;;;;;;;4.00;7.50;;;;;;4981095;28;19961;-81
2023/12/18 13:05:40;;;;;;;;;;;4.00;9.20;;;;;;4988526;28;19918;-81
2023/12/18 13:08:05;;;;;;;;;;;4.20;6.50;;;;;;4992154;28;19956;-81
2023/12/18 13:10:34;;;;;;;;;;;4.20;4.00;;;;;;4994129;28;19960;-73
2023/12/18 13:13:06;;;;;;;;;;;4.20;4.30;;;;;;5007696;28;20285;-73
2023/12/18 13:15:31;;;;;;;;;;;4.20;2.90;;;;;;5001454;28;19916;-73
2023/12/18 13:17:57;;;;;;;;;;;4.40;2.00;;;;;;5003136;28;19914;-74
2023/12/18 13:20:40;;;;;;;;;;;4.30;1.00;;;;;;5000933;28;19917;-73
2023/12/18 13:23:10;;;;;;;;;;;;;;;;;;4995916;28;20313;-74
2023/12/18 13:26:10;;;;;;;;;;;4.00;1.00;;;;;;4996280;28;20004;-81
2023/12/18 13:29:10;;;;;;;;;;;3.90;1.20;;;;;;4995925;28;19913;-81
2023/12/18 13:37:40;;;;;;;;;;;3.90;5.70;;;;;;4994981;28;20316;-81
2023/12/18 13:40:40;;;;;;;;;;;3.90;6.30;;;;;;4978771;28;20324;-81
2023/12/18 13:43:10;;;;;;;;;;;3.80;7.30;;;;;;5010868;28;19921;-81
2023/12/18 13:46:10;;;;;;;;;;;3.80;8.80;;;;;;4996014;28;19957;-83
2023/12/18 13:48:40;;;;;;;;;;;3.90;8.90;;;;;;4997729;28;19910;-81
2023/12/18 13:51:10;;;;;;;;;;;;;;;;;;5007542;28;19917;-80
2023/12/18 13:53:40;;;;;;;;;;;3.90;10.50;;;;;;4988482;28;19917;-80
2023/12/18 13:56:11;;;;;;;;;;;3.80;8.90;;;;;;4991102;28;19910;-79
2023/12/18 13:58:40;;;;;;;;;;;3.90;8.20;;;;;;5010026;28;19910;-79
2023/12/18 14:01:41;;;;;;;;;;;3.90;6.30;;;;;;4988321;28;19925;-79
2023/12/18 14:04:06;;;;;;;;;;;4.00;5.90;;;;;;4994908;28;19967;-79
2023/12/18 14:06:40;;;;;;;;;;;4.20;7.00;;;;;;4987020;28;20009;-79
2023/12/18 14:09:10;;;;;;;;;;;4.10;2.60;;;;;;4992621;28;20324;-79
2023/12/18 14:11:36;;;;;;;;;;;;;;;;;;4998842;28;19914;-72
2023/12/18 14:14:04;;;;;;;;;;;4.30;2.30;;;;;;4996113;28;19960;-72
2023/12/18 14:16:29;;;;;;;;;;;4.30;1.00;;;;;;4994682;28;19910;-73
2023/12/18 14:18:56;;;;;;;;;;;;;;;;;;4994451;28;19914;-72
2023/12/18 14:21:22;;;;;;;;;;;4.00;1.00;;;;;;4994145;28;20011;-72
2023/12/18 14:23:48;;;;;;;;;;;4.00;1.00;;;;;;4995088;28;20257;-72
2023/12/18 14:26:34;;;;;;;;;;;4.10;1.00;;;;;;4991645;28;19910;-80
2023/12/18 14:29:11;;;;;;;;;;;4.10;1.00;;;;;;4994708;28;19921;-80
2023/12/18 14:32:10;;;;;;;;;;;4.00;1.00;;;;;;4997255;28;19913;-81
2023/12/18 14:34:46;;;;;;;;;;;3.90;1.00;;;;;;5000033;28;20304;-81
2023/12/18 14:37:40;;;;;;;;;;;3.70;1.00;;;;;;4996847;28;19924;-81
2023/12/18 14:40:11;;;;;;;;;;;3.70;3.80;;;;;;5007442;28;19925;-80
2023/12/18 14:42:37;;;;;;;;;;;3.80;5.80;;;;;;4997260;28;19944;-70
2023/12/18 14:45:02;;;;;;;;;;;3.80;3.80;;;;;;4994326;28;19914;-70
2023/12/18 14:47:35;;;;;;;;;;;3.80;2.80;;;;;;4993921;28;19967;-70
2023/12/18 14:50:02;;;;;;;;;;;3.80;1.00;;;;;;4982569;28;19957;-70
2023/12/18 14:52:27;;;;;;;;;;;3.70;1.00;;;;;;4992955;28;20002;-70
2023/12/18 14:55:04;;;;;;;;;;;3.70;1.50;;;;;;4988326;28;19999;-78
2023/12/18 14:57:30;;;;;;;;;;;3.70;1.00;;;;;;4990760;28;20004;-71
2023/12/18 15:00:05;;;;;;;;;;;3.80;2.50;;;;;;4995988;28;19961;-76
2023/12/18 15:02:46;;;;;;;;;;;3.70;1.70;;;;;;4977352;28;20270;-76
2023/12/18 15:05:16;;;;;;;;;;;3.60;3.10;;;;;;4981038;28;19964;-76
2023/12/18 15:07:53;;;;;;;;;;;3.60;4.90;;;;;;4989970;28;19928;-77
2023/12/18 15:10:19;;;;;;;;;;;3.70;5.90;;;;;;5007823;28;19917;-81
2023/12/18 15:13:16;;;;;;;;;;;3.70;3.50;;;;;;4994795;28;19916;-76
2023/12/18 15:15:42;;;;;;;;;;;;;;;;;;4994454;28;19956;-72
2023/12/18 15:18:10;;;;;;;;;;;3.70;1.00;;;;;;4993874;28;19917;-73
2023/12/18 15:20:36;;;;;;;;;;;3.60;1.00;;;;;;4982493;28;19947;-73
2023/12/18 15:23:01;;;;;;;;;;;3.70;1.60;;;;;;5001406;28;19914;-73
2023/12/18 15:25:28;;;;;;;;;;;3.70;1.50;;;;;;4994243;28;19918;-72
2023/12/18 15:27:54;;;;;;;;;;;3.70;1.90;;;;;;4992608;28;19914;-73
2023/12/18 15:30:20;;;;;;;;;;;3.80;1.00;;;;;;4994054;28;19917;-73
2023/12/18 15:32:46;;;;;;;;;;;3.90;1.00;;;;;;4987206;28;20270;-73
2023/12/18 15:35:11;;;;;;;;;;;3.90;1.00;;;;;;5000818;28;20376;-72
2023/12/18 15:37:37;;;;;;;;;;;3.90;1.00;;;;;;4998118;28;19914;-73
2023/12/18 15:40:03;;;;;;;;;;;4.00;1.00;;;;;;4996500;28;19914;-72
2023/12/18 15:42:40;;;;;;;;;;;4.00;1.00;;;;;;4989165;28;19917;-82
2023/12/18 15:45:11;;;;;;;;;;;3.90;1.00;;;;;;4996336;28;20327;-81
2023/12/18 15:47:40;;;;;;;;;;;3.90;1.00;;;;;;5002714;28;19918;-82
2023/12/18 15:50:10;;;;;;;;;;;3.70;1.00;;;;;;4997326;28;20269;-83
2023/12/18 15:52:58;;;;;;;;;;;3.70;1.00;;;;;;4988529;28;19925;-83
2023/12/18 15:55:23;;;;;;;;;;;3.60;1.00;;;;;;4995285;28;19925;-83
2023/12/18 15:57:49;;;;;;;;;;;3.60;1.00;;;;;;4986768;28;20028;-75
2023/12/18 16:00:15;;;;;;;;;;;3.60;1.00;;;;;;5001765;28;19917;-75
2023/12/18 16:02:40;;;;;;;;;;;3.60;1.00;;;;;;4994300;28;19921;-74
2023/12/18 16:05:06;;;;;;;;;;;3.50;1.00;;;;;;5002543;28;19925;-73
2023/12/18 16:07:33;;;;;;;;;;;;;;;;;;4999871;28;19957;-73
2023/12/18 16:10:22;;;;;;;;;;;3.40;1.00;;;;;;4990203;28;19914;-73
2023/12/18 16:12:47;;;;;;;;;;;3.50;1.00;;;;;;4996300;28;19914;-71
2023/12/18 16:18:16;;;;;;;;;;;3.30;3.30;;;;;;5013536;28;20338;-76
2023/12/18 16:20:41;;;;;;;;;;;3.30;5.00;;;;;;5006958;28;20004;-72
2023/12/18 16:23:07;;;;;;;;;;;3.30;5.60;;;;;;5006837;28;19913;-73
2023/12/18 16:25:33;;;;;;;;;;;;;;;;;;5013645;28;19949;-72
2023/12/18 16:27:59;;;;;;;;;;;3.40;5.30;;;;;;4997320;28;19941;-72
2023/12/18 16:30:25;;;;;;;;;;;;;;;;;;4995169;28;19968;-72
2023/12/18 16:32:51;;;;;;;;;;;3.50;5.00;;;;;;4996225;28;19914;-72
2023/12/18 16:35:16;;;;;;;;;;;3.60;3.80;;;;;;4987816;28;19945;-72
2023/12/18 16:37:42;;;;;;;;;;;3.60;4.10;;;;;;4992915;28;20282;-72
2023/12/18 16:40:10;;;;;;;;;;;3.70;3.90;;;;;;5003419;28;20476;-72
2023/12/18 16:45:42;;;;;;;;;;;3.80;1.40;;;;;;4999868;28;19937;-77
2023/12/18 16:56:58;;;;;;;;;;;3.80;1.00;;;;;;4995429;28;20419;-77
2023/12/18 17:05:30;;;;;;;;;;;3.80;1.00;;;;;;4996316;28;19928;-77
2023/12/18 17:11:22;;;;;;;;;;;3.80;1.00;;;;;;4984813;28;19967;-77
2023/12/18 17:14:05;;;;;;;;;;;3.70;1.00;;;;;;4993490;28;19913;-78
2023/12/18 17:16:52;;;;;;;;;;;3.80;1.00;;;;;;4995440;28;19921;-77
2023/12/18 17:22:21;;;;;;;;;;;3.80;1.00;;;;;;5005401;28;20276;-83
2023/12/18 17:27:58;;;;;;;;;;;3.80;1.00;;;;;;4996375;28;19933;-79
2023/12/18 17:34:04;;;;;;;;;;;3.90;1.00;;;;;;5005566;28;19921;-79
2023/12/18 17:39:32;;;;;;;;;;;3.80;1.00;;;;;;4995182;28;19920;-79
2023/12/18 17:48:04;;;;;;;;;;;3.70;1.00;;;;;;4996185;28;20009;-76
2023/12/18 17:50:29;;;;;;;;;;;3.70;1.00;;;;;;4992893;28;19938;-76
2023/12/18 17:55:58;;;;;;;;;;;3.40;1.00;;;;;;4984836;28;20025;-79
2023/12/18 18:01:52;;;;;;;;;;;3.30;1.80;;;;;;4985663;28;19970;-83
2023/12/18 18:07:20;;;;;;;;;;;3.20;4.00;;;;;;4985553;28;20278;-77
2023/12/18 18:15:54;;;;;;;;;;;3.40;6.80;;;;;;4994446;28;19916;-72
2023/12/18 18:18:20;;;;;;;;;;;3.40;7.30;;;;;;4996969;28;19921;-72
2023/12/18 18:20:46;;;;;;;;;;;3.40;5.90;;;;;;5000850;28;19977;-73
2023/12/18 18:23:11;;;;;;;;;;;3.20;6.60;;;;;;4996967;28;20387;-72
2023/12/18 18:25:38;;;;;;;;;;;3.30;8.70;;;;;;5004145;28;19910;-72
2023/12/18 18:28:04;;;;;;;;;;;3.30;10.60;;;;;;4995183;28;20353;-72
2023/12/18 18:30:58;;;;;;;;;;;3.40;10.50;;;;;;5002802;28;19910;-77
2023/12/18 18:33:29;;;;;;;;;;;3.40;9.40;;;;;;5005030;28;19921;-77
2023/12/18 18:36:32;;;;;;;;;;;3.30;7.30;;;;;;5008334;28;20408;-76
2023/12/18 18:39:05;;;;;;;;;;;3.30;9.40;;;;;;5001889;28;19921;-76
2023/12/18 18:50:46;;;;;;;;;;;;;;;;;;4993210;28;19968;-80
2023/12/18 18:56:34;;;;;;;;;;;3.20;14.10;;;;;;4994856;28;19978;-82
2023/12/18 18:59:28;;;;;;;;;;;3.20;11.30;;;;;;4981508;28;20250;-76
2023/12/18 19:04:57;;;;;;;;;;;;;;;;;;4994459;28;19921;-74
2023/12/18 19:07:23;;;;;;;;;;;3.00;13.10;;;;;;4985634;28;19909;-74
2023/12/18 19:09:58;;;;;;;;;;;2.90;13.10;;;;;;5011969;28;19922;-73
2023/12/18 19:12:24;;;;;;;;;;;3.00;15.50;;;;;;4991881;28;19920;-73
2023/12/18 19:20:37;;;;;;;;;;;;;;;;;;4998294;28;19916;-77
2023/12/18 19:26:06;;;;;;;;;;;3.00;15.00;;;;;;4999662;28;19976;-81
2023/12/18 19:34:43;;;;;;;;;;;;;;;;;;4994520;28;19945;-80
2023/12/18 19:37:40;;;;;;;;;;;3.10;14.70;;;;;;5000515;28;19917;-80
2023/12/18 19:40:06;;;;;;;;;;;3.20;13.80;;;;;;5007024;28;19913;-79
2023/12/18 19:45:40;;;;;;;;;;;3.20;12.60;;;;;;4997198;28;19920;-75
2023/12/18 19:48:06;;;;;;;;;;;;;;;;;;4992753;28;19980;-72
2023/12/18 19:50:32;;;;;;;;;;;3.00;10.00;;;;;;5007276;28;19914;-72
2023/12/18 19:52:57;;;;;;;;;;;3.10;11.40;;;;;;4999133;28;19914;-72
2023/12/18 19:55:23;;;;;;;;;;;3.00;12.20;;;;;;4997811;28;19933;-72
2023/12/18 19:57:49;;;;;;;;;;;3.00;13.50;;;;;;4989541;28;19987;-72
2023/12/18 20:06:20;;;;;;;;;;;3.00;12.50;;;;;;4997835;28;19925;-80
2023/12/18 20:12:04;;;;;;;;;;;2.90;14.10;;;;;;4992553;28;19964;-80
2023/12/18 20:14:30;;;;;;;;;;;2.80;14.20;;;;;;5000220;28;20382;-72
2023/12/18 20:16:55;;;;;;;;;;;2.90;15.00;;;;;;5002112;28;20005;-72
2023/12/18 20:19:21;;;;;;;;;;;;;;;;;;4999469;28;19945;-72